sensor_id;sensor_type;location;lat;lon;timestamp;temperature;humidity
18207;DHT22;9229;52.354;20.886;2023-01-15T00:03:21;5.60;99.90
18207;DHT22;9229;52.354;20.886;2023-01-15T00:08:26;5.70;99.90
18207;DHT22;9229;52.354;20.886;2023-01-15T00:13:30;5.70;99.90
18207;DHT22;9229;52.354;20.886;2023-01-15T00:18:33;5.70;99.90
18207;DHT22;9229;52.354;20.886;2023-01-15T00:23:35;5.80;99.90
18207;DHT22;9229;52.354;20.886;2023-01-15T00:28:56;5.80;99.90
18207;DHT22;9229;52.354;20.886;2023-01-15T00:33:58;5.80;99.90
18207;DHT22;9229;52.354;20.886;2023-01-15T00:39:00;5.80;99.90
18207;DHT22;9229;52.354;20.886;2023-01-15T00:44:04;5.80;99.90
18207;DHT22;9229;52.354;20.886;2023-01-15T00:49:07;5.90;99.90
18207;DHT22;9229;52.354;20.886;2023-01-15T00:54:10;5.90;99.90
18207;DHT22;9229;52.354;20.886;2023-01-15T00:59:14;5.90;99.90
18207;DHT22;9229;52.354;20.886;2023-01-15T01:04:17;5.90;99.90
18207;DHT22;9229;52.354;20.886;2023-01-15T01:09:19;5.90;99.90
18207;DHT22;9229;52.354;20.886;2023-01-15T01:14:24;5.80;99.90
18207;DHT22;9229;52.354;20.886;2023-01-15T01:19:27;5.80;99.90
18207;DHT22;9229;52.354;20.886;2023-01-15T01:24:30;5.80;99.90
18207;DHT22;9229;52.354;20.886;2023-01-15T01:29:35;5.70;99.90
18207;DHT22;9229;52.354;20.886;2023-01-15T01:34:37;5.60;99.90
18207;DHT22;9229;52.354;20.886;2023-01-15T01:39:39;5.70;99.90
18207;DHT22;9229;52.354;20.886;2023-01-15T01:45:01;5.60;99.90
18207;DHT22;9229;52.354;20.886;2023-01-15T01:50:07;5.50;99.90
18207;DHT22;9229;52.354;20.886;2023-01-15T01:55:11;5.50;99.90
18207;DHT22;9229;52.354;20.886;2023-01-15T02:00:21;5.40;99.90
18207;DHT22;9229;52.354;20.886;2023-01-15T02:05:29;5.30;99.90
18207;DHT22;9229;52.354;20.886;2023-01-15T02:10:31;5.20;99.90
18207;DHT22;9229;52.354;20.886;2023-01-15T02:15:39;5.10;99.90
18207;DHT22;9229;52.354;20.886;2023-01-15T02:20:45;5.00;99.90
18207;DHT22;9229;52.354;20.886;2023-01-15T02:25:57;5.00;99.90
18207;DHT22;9229;52.354;20.886;2023-01-15T02:31:10;5.10;99.90
18207;DHT22;9229;52.354;20.886;2023-01-15T02:36:15;5.10;99.90
18207;DHT22;9229;52.354;20.886;2023-01-15T02:41:25;5.10;99.90
18207;DHT22;9229;52.354;20.886;2023-01-15T02:46:35;5.10;99.90
18207;DHT22;9229;52.354;20.886;2023-01-15T02:51:46;5.10;99.90
18207;DHT22;9229;52.354;20.886;2023-01-15T02:56:52;5.10;99.90
18207;DHT22;9229;52.354;20.886;2023-01-15T03:02:00;5.20;99.90
18207;DHT22;9229;52.354;20.886;2023-01-15T03:07:07;5.00;99.90
18207;DHT22;9229;52.354;20.886;2023-01-15T03:12:14;5.00;99.90
18207;DHT22;9229;52.354;20.886;2023-01-15T03:17:23;5.00;99.90
18207;DHT22;9229;52.354;20.886;2023-01-15T03:22:32;5.10;99.90
18207;DHT22;9229;52.354;20.886;2023-01-15T03:27:34;5.00;99.90
18207;DHT22;9229;52.354;20.886;2023-01-15T03:32:40;5.10;99.90
18207;DHT22;9229;52.354;20.886;2023-01-15T03:37:42;5.20;99.90
18207;DHT22;9229;52.354;20.886;2023-01-15T03:42:48;5.10;99.90
18207;DHT22;9229;52.354;20.886;2023-01-15T03:48:17;5.10;99.90
18207;DHT22;9229;52.354;20.886;2023-01-15T03:53:25;5.10;99.90
18207;DHT22;9229;52.354;20.886;2023-01-15T03:58:37;5.10;99.90
18207;DHT22;9229;52.354;20.886;2023-01-15T04:03:46;5.10;99.90
18207;DHT22;9229;52.354;20.886;2023-01-15T04:08:52;5.20;99.90
18207;DHT22;9229;52.354;20.886;2023-01-15T04:13:55;5.20;99.90
18207;DHT22;9229;52.354;20.886;2023-01-15T04:19:17;5.10;99.90
18207;DHT22;9229;52.354;20.886;2023-01-15T04:24:37;5.10;99.90
18207;DHT22;9229;52.354;20.886;2023-01-15T04:29:39;5.10;99.90
18207;DHT22;9229;52.354;20.886;2023-01-15T04:34:43;5.10;99.90
18207;DHT22;9229;52.354;20.886;2023-01-15T04:39:46;5.10;99.90
18207;DHT22;9229;52.354;20.886;2023-01-15T04:44:47;5.10;99.90
18207;DHT22;9229;52.354;20.886;2023-01-15T04:49:52;5.00;99.90
18207;DHT22;9229;52.354;20.886;2023-01-15T04:54:55;5.00;99.90
18207;DHT22;9229;52.354;20.886;2023-01-15T04:59:57;4.90;99.90
18207;DHT22;9229;52.354;20.886;2023-01-15T05:05:01;4.90;99.90
18207;DHT22;9229;52.354;20.886;2023-01-15T05:10:03;4.90;99.90
18207;DHT22;9229;52.354;20.886;2023-01-15T05:15:06;4.90;99.90
18207;DHT22;9229;52.354;20.886;2023-01-15T05:20:11;4.90;99.90
18207;DHT22;9229;52.354;20.886;2023-01-15T05:25:15;4.90;99.90
18207;DHT22;9229;52.354;20.886;2023-01-15T05:30:17;5.00;99.90
18207;DHT22;9229;52.354;20.886;2023-01-15T05:35:21;5.10;99.90
18207;DHT22;9229;52.354;20.886;2023-01-15T05:40:25;5.10;99.90
18207;DHT22;9229;52.354;20.886;2023-01-15T05:45:28;5.20;99.90
18207;DHT22;9229;52.354;20.886;2023-01-15T05:50:31;5.30;99.90
18207;DHT22;9229;52.354;20.886;2023-01-15T05:55:33;5.30;99.90
18207;DHT22;9229;52.354;20.886;2023-01-15T06:00:35;5.40;99.90
18207;DHT22;9229;52.354;20.886;2023-01-15T06:05:39;5.40;99.90
18207;DHT22;9229;52.354;20.886;2023-01-15T06:10:43;5.40;99.90
18207;DHT22;9229;52.354;20.886;2023-01-15T06:15:45;5.40;99.90
18207;DHT22;9229;52.354;20.886;2023-01-15T06:20:48;5.40;99.90
18207;DHT22;9229;52.354;20.886;2023-01-15T06:25:50;5.30;99.90
18207;DHT22;9229;52.354;20.886;2023-01-15T06:30:58;5.30;99.90
18207;DHT22;9229;52.354;20.886;2023-01-15T06:36:11;5.10;99.90
18207;DHT22;9229;52.354;20.886;2023-01-15T06:41:17;5.10;99.90
18207;DHT22;9229;52.354;20.886;2023-01-15T06:46:38;5.10;99.90
18207;DHT22;9229;52.354;20.886;2023-01-15T06:52:01;5.00;99.90
18207;DHT22;9229;52.354;20.886;2023-01-15T06:57:03;4.90;99.90
18207;DHT22;9229;52.354;20.886;2023-01-15T07:02:06;4.90;99.90
18207;DHT22;9229;52.354;20.886;2023-01-15T07:07:09;4.80;99.90
18207;DHT22;9229;52.354;20.886;2023-01-15T07:12:11;4.80;99.90
18207;DHT22;9229;52.354;20.886;2023-01-15T07:17:14;4.80;99.90
18207;DHT22;9229;52.354;20.886;2023-01-15T07:22:17;4.80;99.90
18207;DHT22;9229;52.354;20.886;2023-01-15T07:27:20;4.90;99.90
18207;DHT22;9229;52.354;20.886;2023-01-15T07:32:23;4.90;99.90
18207;DHT22;9229;52.354;20.886;2023-01-15T07:37:27;4.90;99.90
18207;DHT22;9229;52.354;20.886;2023-01-15T07:42:29;5.00;99.90
18207;DHT22;9229;52.354;20.886;2023-01-15T07:47:49;5.10;99.90
18207;DHT22;9229;52.354;20.886;2023-01-15T07:53:09;5.10;99.90
18207;DHT22;9229;52.354;20.886;2023-01-15T07:58:12;5.20;99.90
18207;DHT22;9229;52.354;20.886;2023-01-15T08:03:14;5.20;99.90
18207;DHT22;9229;52.354;20.886;2023-01-15T08:08:19;5.30;99.90
18207;DHT22;9229;52.354;20.886;2023-01-15T08:13:21;5.40;99.90
18207;DHT22;9229;52.354;20.886;2023-01-15T08:18:40;5.50;99.90
18207;DHT22;9229;52.354;20.886;2023-01-15T08:29:23;5.40;99.90
18207;DHT22;9229;52.354;20.886;2023-01-15T08:34:25;5.60;99.90
18207;DHT22;9229;52.354;20.886;2023-01-15T08:39:28;5.60;99.90
18207;DHT22;9229;52.354;20.886;2023-01-15T08:44:32;5.60;99.90
18207;DHT22;9229;52.354;20.886;2023-01-15T08:49:34;5.70;99.90
18207;DHT22;9229;52.354;20.886;2023-01-15T08:54:36;5.80;99.90
18207;DHT22;9229;52.354;20.886;2023-01-15T08:59:39;5.70;99.90
18207;DHT22;9229;52.354;20.886;2023-01-15T09:04:42;5.80;99.90
18207;DHT22;9229;52.354;20.886;2023-01-15T09:09:45;5.80;99.90
18207;DHT22;9229;52.354;20.886;2023-01-15T09:14:48;5.80;99.90
18207;DHT22;9229;52.354;20.886;2023-01-15T09:19:50;5.80;99.90
18207;DHT22;9229;52.354;20.886;2023-01-15T09:24:52;5.80;99.90
18207;DHT22;9229;52.354;20.886;2023-01-15T09:29:56;5.80;99.90
18207;DHT22;9229;52.354;20.886;2023-01-15T09:34:58;5.70;99.90
18207;DHT22;9229;52.354;20.886;2023-01-15T09:40:01;5.80;99.90
18207;DHT22;9229;52.354;20.886;2023-01-15T09:45:20;5.80;99.90
18207;DHT22;9229;52.354;20.886;2023-01-15T09:50:32;5.80;99.90
18207;DHT22;9229;52.354;20.886;2023-01-15T09:55:41;5.70;99.90
18207;DHT22;9229;52.354;20.886;2023-01-15T10:00:49;5.80;99.90
18207;DHT22;9229;52.354;20.886;2023-01-15T10:06:00;5.80;99.90
18207;DHT22;9229;52.354;20.886;2023-01-15T10:11:26;5.80;99.90
18207;DHT22;9229;52.354;20.886;2023-01-15T10:16:50;5.80;99.90
18207;DHT22;9229;52.354;20.886;2023-01-15T10:21:56;5.80;99.90
18207;DHT22;9229;52.354;20.886;2023-01-15T10:27:04;5.90;99.90
18207;DHT22;9229;52.354;20.886;2023-01-15T10:32:21;5.90;99.90
18207;DHT22;9229;52.354;20.886;2023-01-15T10:37:28;6.10;99.90
18207;DHT22;9229;52.354;20.886;2023-01-15T10:42:42;6.00;99.90
18207;DHT22;9229;52.354;20.886;2023-01-15T10:47:53;6.00;99.90
18207;DHT22;9229;52.354;20.886;2023-01-15T10:53:04;6.10;99.90
18207;DHT22;9229;52.354;20.886;2023-01-15T10:58:15;6.10;99.90
18207;DHT22;9229;52.354;20.886;2023-01-15T11:03:23;6.10;99.90
18207;DHT22;9229;52.354;20.886;2023-01-15T11:08:32;6.10;99.90
18207;DHT22;9229;52.354;20.886;2023-01-15T11:13:35;6.10;99.90
18207;DHT22;9229;52.354;20.886;2023-01-15T11:18:55;6.20;99.90
18207;DHT22;9229;52.354;20.886;2023-01-15T11:24:16;6.20;99.90
18207;DHT22;9229;52.354;20.886;2023-01-15T11:29:28;6.30;99.90
18207;DHT22;9229;52.354;20.886;2023-01-15T11:34:33;6.40;99.90
18207;DHT22;9229;52.354;20.886;2023-01-15T11:39:38;6.40;99.90
18207;DHT22;9229;52.354;20.886;2023-01-15T11:44:49;6.40;99.90
18207;DHT22;9229;52.354;20.886;2023-01-15T11:50:17;6.50;99.90
18207;DHT22;9229;52.354;20.886;2023-01-15T11:55:37;6.50;99.90
18207;DHT22;9229;52.354;20.886;2023-01-15T12:00:42;6.50;99.90
18207;DHT22;9229;52.354;20.886;2023-01-15T12:05:47;6.50;99.90
18207;DHT22;9229;52.354;20.886;2023-01-15T12:10:59;6.50;99.90
18207;DHT22;9229;52.354;20.886;2023-01-15T12:16:16;6.60;99.90
18207;DHT22;9229;52.354;20.886;2023-01-15T12:21:41;6.60;99.90
18207;DHT22;9229;52.354;20.886;2023-01-15T12:26:57;6.60;99.90
18207;DHT22;9229;52.354;20.886;2023-01-15T12:32:06;6.70;99.90
18207;DHT22;9229;52.354;20.886;2023-01-15T12:37:14;6.80;99.90
18207;DHT22;9229;52.354;20.886;2023-01-15T12:42:23;6.70;99.90
18207;DHT22;9229;52.354;20.886;2023-01-15T12:47:48;6.80;99.90
18207;DHT22;9229;52.354;20.886;2023-01-15T12:53:18;6.90;99.90
18207;DHT22;9229;52.354;20.886;2023-01-15T12:58:35;6.90;99.90
18207;DHT22;9229;52.354;20.886;2023-01-15T13:03:51;7.00;99.90
18207;DHT22;9229;52.354;20.886;2023-01-15T13:09:02;7.00;99.90
18207;DHT22;9229;52.354;20.886;2023-01-15T13:14:11;7.10;99.90
18207;DHT22;9229;52.354;20.886;2023-01-15T13:19:35;7.20;99.90
18207;DHT22;9229;52.354;20.886;2023-01-15T13:24:56;7.20;99.90
18207;DHT22;9229;52.354;20.886;2023-01-15T13:30:25;7.30;99.90
18207;DHT22;9229;52.354;20.886;2023-01-15T13:35:42;7.30;99.90
18207;DHT22;9229;52.354;20.886;2023-01-15T13:40:57;7.40;99.90
18207;DHT22;9229;52.354;20.886;2023-01-15T13:45:59;7.50;99.90
18207;DHT22;9229;52.354;20.886;2023-01-15T13:51:04;7.50;99.90
18207;DHT22;9229;52.354;20.886;2023-01-15T13:56:11;7.50;99.90
18207;DHT22;9229;52.354;20.886;2023-01-15T14:01:23;7.60;99.90
18207;DHT22;9229;52.354;20.886;2023-01-15T14:06:40;7.60;99.90
18207;DHT22;9229;52.354;20.886;2023-01-15T14:12:01;7.70;99.90
18207;DHT22;9229;52.354;20.886;2023-01-15T14:17:26;7.70;99.90
18207;DHT22;9229;52.354;20.886;2023-01-15T14:22:43;7.70;99.90
18207;DHT22;9229;52.354;20.886;2023-01-15T14:28:10;7.80;99.90
18207;DHT22;9229;52.354;20.886;2023-01-15T14:33:27;7.70;99.90
18207;DHT22;9229;52.354;20.886;2023-01-15T14:38:31;7.60;99.90
18207;DHT22;9229;52.354;20.886;2023-01-15T14:43:35;7.60;99.90
18207;DHT22;9229;52.354;20.886;2023-01-15T14:48:42;7.60;99.90
18207;DHT22;9229;52.354;20.886;2023-01-15T14:53:48;7.60;99.90
18207;DHT22;9229;52.354;20.886;2023-01-15T14:59:00;7.80;99.90
18207;DHT22;9229;52.354;20.886;2023-01-15T15:04:12;7.70;99.90
18207;DHT22;9229;52.354;20.886;2023-01-15T15:09:33;7.70;99.90
18207;DHT22;9229;52.354;20.886;2023-01-15T15:14:38;7.70;99.90
18207;DHT22;9229;52.354;20.886;2023-01-15T15:19:46;7.70;99.90
18207;DHT22;9229;52.354;20.886;2023-01-15T15:24:53;7.90;99.90
18207;DHT22;9229;52.354;20.886;2023-01-15T15:30:04;7.70;99.90
18207;DHT22;9229;52.354;20.886;2023-01-15T15:35:23;7.80;99.90
18207;DHT22;9229;52.354;20.886;2023-01-15T15:40:32;7.80;99.90
18207;DHT22;9229;52.354;20.886;2023-01-15T15:45:35;7.80;99.90
18207;DHT22;9229;52.354;20.886;2023-01-15T15:50:57;7.80;99.90
18207;DHT22;9229;52.354;20.886;2023-01-15T15:56:00;7.80;99.90
18207;DHT22;9229;52.354;20.886;2023-01-15T16:01:04;7.80;99.90
18207;DHT22;9229;52.354;20.886;2023-01-15T16:06:07;7.80;99.90
18207;DHT22;9229;52.354;20.886;2023-01-15T16:11:11;7.80;99.90
18207;DHT22;9229;52.354;20.886;2023-01-15T16:16:15;7.70;99.90
18207;DHT22;9229;52.354;20.886;2023-01-15T16:21:25;7.70;99.90
18207;DHT22;9229;52.354;20.886;2023-01-15T16:26:33;7.60;99.90
18207;DHT22;9229;52.354;20.886;2023-01-15T16:31:38;7.50;99.90
18207;DHT22;9229;52.354;20.886;2023-01-15T16:36:41;7.50;99.90
18207;DHT22;9229;52.354;20.886;2023-01-15T16:41:45;7.40;99.90
18207;DHT22;9229;52.354;20.886;2023-01-15T16:46:52;7.40;99.90
18207;DHT22;9229;52.354;20.886;2023-01-15T16:51:55;7.20;99.90
18207;DHT22;9229;52.354;20.886;2023-01-15T16:56:58;7.10;99.90
18207;DHT22;9229;52.354;20.886;2023-01-15T17:02:11;7.00;99.90
18207;DHT22;9229;52.354;20.886;2023-01-15T17:07:18;6.90;99.90
18207;DHT22;9229;52.354;20.886;2023-01-15T17:12:24;6.80;99.90
18207;DHT22;9229;52.354;20.886;2023-01-15T17:17:29;6.80;99.90
18207;DHT22;9229;52.354;20.886;2023-01-15T17:22:32;6.70;99.90
18207;DHT22;9229;52.354;20.886;2023-01-15T17:27:34;6.60;99.90
18207;DHT22;9229;52.354;20.886;2023-01-15T17:32:38;6.60;99.90
18207;DHT22;9229;52.354;20.886;2023-01-15T17:37:41;6.50;99.90
18207;DHT22;9229;52.354;20.886;2023-01-15T17:42:45;6.50;99.90
18207;DHT22;9229;52.354;20.886;2023-01-15T17:47:49;6.50;99.90
18207;DHT22;9229;52.354;20.886;2023-01-15T17:52:51;6.40;99.90
18207;DHT22;9229;52.354;20.886;2023-01-15T17:57:53;6.40;99.90
18207;DHT22;9229;52.354;20.886;2023-01-15T18:03:15;6.40;99.90
18207;DHT22;9229;52.354;20.886;2023-01-15T18:08:36;6.40;99.90
18207;DHT22;9229;52.354;20.886;2023-01-15T18:13:40;6.30;99.90
18207;DHT22;9229;52.354;20.886;2023-01-15T18:18:46;6.30;99.90
18207;DHT22;9229;52.354;20.886;2023-01-15T18:23:48;6.30;99.90
18207;DHT22;9229;52.354;20.886;2023-01-15T18:28:51;6.30;99.90
18207;DHT22;9229;52.354;20.886;2023-01-15T18:33:56;6.20;99.90
18207;DHT22;9229;52.354;20.886;2023-01-15T18:39:01;6.20;99.90
18207;DHT22;9229;52.354;20.886;2023-01-15T18:44:09;6.20;99.90
18207;DHT22;9229;52.354;20.886;2023-01-15T18:49:33;6.10;99.90
18207;DHT22;9229;52.354;20.886;2023-01-15T18:54:35;6.00;99.90
18207;DHT22;9229;52.354;20.886;2023-01-15T18:59:38;6.00;99.90
18207;DHT22;9229;52.354;20.886;2023-01-15T19:04:46;6.00;99.90
18207;DHT22;9229;52.354;20.886;2023-01-15T19:09:48;5.90;99.90
18207;DHT22;9229;52.354;20.886;2023-01-15T19:14:52;5.80;99.90
18207;DHT22;9229;52.354;20.886;2023-01-15T19:20:15;5.80;99.90
18207;DHT22;9229;52.354;20.886;2023-01-15T19:25:18;5.70;99.90
18207;DHT22;9229;52.354;20.886;2023-01-15T19:30:24;5.60;99.90
18207;DHT22;9229;52.354;20.886;2023-01-15T19:35:28;5.60;99.90
18207;DHT22;9229;52.354;20.886;2023-01-15T19:40:30;5.70;99.90
18207;DHT22;9229;52.354;20.886;2023-01-15T19:45:39;5.50;99.90
18207;DHT22;9229;52.354;20.886;2023-01-15T19:51:01;5.40;99.90
18207;DHT22;9229;52.354;20.886;2023-01-15T19:56:03;5.40;99.90
18207;DHT22;9229;52.354;20.886;2023-01-15T20:01:12;5.30;99.90
18207;DHT22;9229;52.354;20.886;2023-01-15T20:06:16;5.30;99.90
18207;DHT22;9229;52.354;20.886;2023-01-15T20:11:19;5.20;99.90
18207;DHT22;9229;52.354;20.886;2023-01-15T20:16:21;5.30;99.90
18207;DHT22;9229;52.354;20.886;2023-01-15T20:21:27;5.10;99.90
18207;DHT22;9229;52.354;20.886;2023-01-15T20:26:29;5.10;99.90
18207;DHT22;9229;52.354;20.886;2023-01-15T20:31:33;5.10;99.90
18207;DHT22;9229;52.354;20.886;2023-01-15T20:36:36;5.10;99.90
18207;DHT22;9229;52.354;20.886;2023-01-15T20:41:38;5.10;99.90
18207;DHT22;9229;52.354;20.886;2023-01-15T20:46:58;5.00;99.90
18207;DHT22;9229;52.354;20.886;2023-01-15T20:52:22;5.00;99.90
18207;DHT22;9229;52.354;20.886;2023-01-15T20:57:26;5.10;99.90
18207;DHT22;9229;52.354;20.886;2023-01-15T21:02:29;5.00;99.90
18207;DHT22;9229;52.354;20.886;2023-01-15T21:07:37;5.00;99.90
18207;DHT22;9229;52.354;20.886;2023-01-15T21:12:53;5.00;99.90
18207;DHT22;9229;52.354;20.886;2023-01-15T21:17:56;4.90;99.90
18207;DHT22;9229;52.354;20.886;2023-01-15T21:23:11;4.90;99.90
18207;DHT22;9229;52.354;20.886;2023-01-15T21:28:15;4.80;99.90
18207;DHT22;9229;52.354;20.886;2023-01-15T21:33:17;4.90;99.90
18207;DHT22;9229;52.354;20.886;2023-01-15T21:38:21;4.90;99.90
18207;DHT22;9229;52.354;20.886;2023-01-15T21:43:23;4.90;99.90
18207;DHT22;9229;52.354;20.886;2023-01-15T21:48:42;4.90;99.90
18207;DHT22;9229;52.354;20.886;2023-01-15T21:53:46;4.90;99.90
18207;DHT22;9229;52.354;20.886;2023-01-15T21:58:48;4.90;99.90
18207;DHT22;9229;52.354;20.886;2023-01-15T22:03:50;4.90;99.90
18207;DHT22;9229;52.354;20.886;2023-01-15T22:08:54;4.90;99.90
18207;DHT22;9229;52.354;20.886;2023-01-15T22:13:56;4.90;99.90
18207;DHT22;9229;52.354;20.886;2023-01-15T22:18:58;4.90;99.90
18207;DHT22;9229;52.354;20.886;2023-01-15T22:24:03;4.90;99.90
18207;DHT22;9229;52.354;20.886;2023-01-15T22:29:05;4.90;99.90
18207;DHT22;9229;52.354;20.886;2023-01-15T22:34:07;4.90;99.90
18207;DHT22;9229;52.354;20.886;2023-01-15T22:39:11;4.90;99.90
18207;DHT22;9229;52.354;20.886;2023-01-15T22:44:15;4.80;99.90
18207;DHT22;9229;52.354;20.886;2023-01-15T22:49:17;4.80;99.90
18207;DHT22;9229;52.354;20.886;2023-01-15T22:54:20;4.80;99.90
18207;DHT22;9229;52.354;20.886;2023-01-15T22:59:22;4.80;99.90
18207;DHT22;9229;52.354;20.886;2023-01-15T23:04:25;4.80;99.90
18207;DHT22;9229;52.354;20.886;2023-01-15T23:09:28;4.80;99.90
18207;DHT22;9229;52.354;20.886;2023-01-15T23:14:31;4.70;99.90
18207;DHT22;9229;52.354;20.886;2023-01-15T23:19:33;4.70;99.90
18207;DHT22;9229;52.354;20.886;2023-01-15T23:24:36;4.70;99.90
18207;DHT22;9229;52.354;20.886;2023-01-15T23:29:39;4.70;99.90
18207;DHT22;9229;52.354;20.886;2023-01-15T23:34:41;4.70;99.90
18207;DHT22;9229;52.354;20.886;2023-01-15T23:39:44;4.60;99.90
18207;DHT22;9229;52.354;20.886;2023-01-15T23:44:46;4.60;99.90
18207;DHT22;9229;52.354;20.886;2023-01-15T23:50:06;4.60;99.90
18207;DHT22;9229;52.354;20.886;2023-01-15T23:55:10;4.50;99.90
